Raleigh County Memorial (BKW)

 

Airport Diagram
No Airport Diagram Available
Current Weather/Forecast (MVFR Conditions)
METAR KBKW 071319Z AUTO 28006KT 10SM FEW008 BKN012 OVC018 07/06 A2993 RMK AO2 RAE13 P0000 T00670056 TSNO
TAF KBKW 071259Z 0713/0812 29006KT 6SM -SHRA BKN025 FM071500 29009G15KT 6SM -SHRA OVC015 FM071800 30013G20KT P6SM BKN050 FM080000 30008G15KT P6SM FEW150 FM080600 27007KT P6SM BKN020 FM081100 29008G16KT P6SM SCT045

Airport Information

All Charts
General
Chart Name View
TAKEOFF MINIMUMS
ALTERNATE MINIMUMS

Approaches
Chart Name Download
ILS OR LOC RWY 19
RNAV (GPS) RWY 01
RNAV (GPS) RWY 10
RNAV (GPS) RWY 19
RNAV (GPS) RWY 28
VOR RWY 10


Airport Statistics
Departures Arrivals Local
All Collected Stats since June 2016: 53 49 1
2021 Stats: 6 7 0
May Stats: 0 0 0

Inbound Traffic (Arrivals) - 0

No inbound traffic.


Outbound Traffic (Departures) - 0

No outbound traffic.


Local Traffic (Pattern) - 0

No local traffic.